Aviation Digital Data Service (ADDS)

Output produced by METARs form (1207 UTC 24 March 2017)
found at http://www.aviationweather.gov/adds/metars/
 
GMAD 241200Z AUTO 26018KT 9999NDV /// 19/02 Q1015
TAF GMAD 241100Z 2412/2518 26016KT 9999 SCT030 
     TEMPO 2412/2419 26016G26KT 
     BECMG 2421/2423 20006KT
       
GMMC 241200Z 28012KT 9999 BKN016TCU FEW020CB 14/07 Q1016
GMFO 241200Z 32010KT 9999 SCT026 SCT033 13/03 Q1014 NOSIG
TAF GMFO 241100Z 2412/2518 27015KT 9999 SCT026 BKN033 
     PROB30 
     TEMPO 2418/2504 8000 -SHRA SCT026 SCT033 FEW050CB 
     TEMPO 2512/2518 25012KT 9999 SCT026 SCT033
       
GMMW 241200Z 26004KT 9999 SCT020 16/04 Q1014 NOSIG
TAF GMMW 241100Z 2412/2518 33006KT 9999 SCT020 
     PROB40 
     TEMPO 2412/2420 4000 -TSRA BKN020TCU 
     BECMG 2512/2514 05012KT
       
GMFM 241200Z 25009KT 9999 FEW010 BKN016TCU SCT020 10/05 Q1016 NOSIG
TAF GMFM 241100Z 2412/2518 32008KT 6000 SCT013 BKN016 
     TEMPO 2414/2424 RA FEW010 BKN016 
     BECMG 10008KT 8000 FEW020 SCT100
       
GMTA 241200Z 32008KT 9999 SCT020TCU 15/06 Q1015 NOSIG
TAF GMTA 241100Z 2412/2518 34006KT 9999 SCT020 BKN030 
     PROB40 
     TEMPO 2412/2420 4000 -TSRA BKN020TCU 
     BECMG 2510/2512 04010KT
       
GMMI 241200Z AUTO VRB10KT 9999NDV ////// 17/05 Q1018 NOSIG
TAF GMMI 241100Z 2412/2518 34009KT 8000 BKN01
       
GMAD 241200Z AUTO 26018KT 9999NDV /// 19/02 Q1015
TAF GMAD 241100Z 2412/2518 26016KT 9999 SCT030 
     TEMPO 2412/2419 26016G26KT 
     BECMG 2421/2423 20006KT
       
GMAG 241200Z 36018G28KT 9999 FEW016 16/03 Q1017 NOSIG
GMAT 241200Z 36016KT 8000 BKN016 17/05 Q1018 NOSIG
GMFF 241200Z 26014KT 9999 FEW020 BKN030 12/05 Q1017 NOSIG
TAF GMFF 241100Z 2412/2518 30010KT 9999 FEW020 BKN030 
     PROB40 
     TEMPO 2415/2419 TSRA SCT010 BKN030 SCT033CB
       
GMFK 241200Z 22006KT 080V330 9999 SCT026 13/M11 Q1014 NOSIG
GMFM 241200Z 25009KT 9999 FEW010 BKN016TCU SCT020 10/05 Q1016 NOSIG
TAF GMFM 241100Z 2412/2518 32008KT 6000 SCT013 BKN016 
     TEMPO 2414/2424 RA FEW010 BKN016 
     BECMG 10008KT 8000 FEW020 SCT100
       
GMFO 241200Z 32010KT 9999 SCT026 SCT033 13/03 Q1014 NOSIG
TAF GMFO 241100Z 2412/2518 27015KT 9999 SCT026 BKN033 
     PROB30 
     TEMPO 2418/2504 8000 -SHRA SCT026 SCT033 FEW050CB 
     TEMPO 2512/2518 25012KT 9999 SCT026 SCT033
       
GMMB 241200Z 23009KT 200V280 4000 RA BKN016 FEW030CB 13/07 Q1018 NOSIG
GMMC 241200Z 28012KT 9999 BKN016TCU FEW020CB 14/07 Q1016
GMMD 241200Z 22009KT 9999 BKN023 11/04 Q1018 NOSIG
GMME 241200Z 33004KT 280V020 6000 TS SCT015TCU BKN020 SCT023CB 09/06 Q1017 RESHRA TEMPO 4000 SHRA
TAF GMME 241100Z 2412/2518 22012KT 6000 SCT015 BKN020 SCT023CB 
     TEMPO 2412/2418 18008KT TSSHRA
       
GMMH 241200Z 07023KT CAVOK 19/07 Q1018 NOSIG
TAF GMMH 241100Z 2412/2518 03027KT 8000 NSC 
     TEMPO 2422/2503 03027G37KT 
     BECMG 2505/2507 05017KT
       
GMMI 241200Z AUTO VRB10KT 9999NDV ////// 17/05 Q1018 NOSIG
TAF GMMI 241100Z 2412/2518 34009KT 8000 BKN01
       
GMML 241200Z 04016KT 9999 SCT033 20/04 Q1020 NOSIG
TAF GMML 241100Z 2412/2518 01017KT 9999 SCT033 
     TEMPO 2415/2418 36017G27KT 
     BECMG 2502/2505 05007KT 
     BECMG 2511/2515 33016KT
       
GMMN 241200Z 26011KT 9999 SCT016 SCT020 14/07 Q1018 NOSIG
TAF GMMN 240500Z 2406/2512 18003KT 9999 SCT020 
     TEMPO 2407/2412 5000 BR BKN010 
     BECMG 2413/2415 34012KT CAVOK 
     BECMG 1200/1204 VRB02KT 2000 BR BKN006
       
GMMW 241200Z 26004KT 9999 SCT020 16/04 Q1014 NOSIG
TAF GMMW 241100Z 2412/2518 33006KT 9999 SCT020 
     PROB40 
     TEMPO 2412/2420 4000 -TSRA BKN020TCU 
     BECMG 2512/2514 05012KT
       
GMMX 241200Z VRB02KT 9999 SCT023 14/M02 Q1017 NOSIG
TAF GMMX 241100Z 2412/2518 24006KT 8000 SCT023 TEPO 2415/2420 32016KT
       
GMMZ 241200Z 32006KT 260V010 CAVOK 13/M11 Q1013 NOSIG
TAF GMMZ 241100Z 2412/2518 VRB01KT CAVOK 
     TEMPO 2416/2421 32016KT FEW090
       
GMTA 241200Z 32008KT 9999 SCT020TCU 15/06 Q1015 NOSIG
TAF GMTA 241100Z 2412/2518 34006KT 9999 SCT020 BKN030 
     PROB40 
     TEMPO 2412/2420 4000 -TSRA BKN020TCU 
     BECMG 2510/2512 04010KT
       
GMTN 241200Z 24015KT 9999 SCT030TCU FEW040CB 13/04 Q1015 NOSIG
GMTT 241200Z 16009KT 6000 BKN016 FEW023TCU 10/08 Q1016 RERA NOSIG
TAF GMTT 241100Z 2412/2518 23012KT 6000 -RA BKN016 FEW023TCU 
     TEMPO 2500/2508 18010KT 8000 SCT016 SCT100 
     BECMG 2508/2511 28010KT
       
GMTT 241200Z 16009KT 6000 BKN016 FEW023TCU 10/08 Q1016 RERA NOSIG
TAF GMTT 241100Z 2412/2518 23012KT 6000 -RA BKN016 FEW023TCU 
     TEMPO 2500/2508 18010KT 8000 SCT016 SCT100 
     BECMG 2508/2511 28010KT
       
GMMX 241200Z VRB02KT 9999 SCT023 14/M02 Q1017 NOSIG
TAF GMMX 241100Z 2412/2518 24006KT 8000 SCT023 TEPO 2415/2420 32016KT
       
GMMN 241200Z 26011KT 9999 SCT016 SCT020 14/07 Q1018 NOSIG
TAF GMMN 240500Z 2406/2512 18003KT 9999 SCT020 
     TEMPO 2407/2412 5000 BR BKN010 
     BECMG 2413/2415 34012KT CAVOK 
     BECMG 1200/1204 VRB02KT 2000 BR BKN006
       
GMFK 241200Z 22006KT 080V330 9999 SCT026 13/M11 Q1014 NOSIG
GMMZ 241200Z 32006KT 260V010 CAVOK 13/M11 Q1013 NOSIG
TAF GMMZ 241100Z 2412/2518 VRB01KT CAVOK 
     TEMPO 2416/2421 32016KT FEW090
       
GMAT 241200Z 36016KT 8000 BKN016 17/05 Q1018 NOSIG
GMFF 241200Z 26014KT 9999 FEW020 BKN030 12/05 Q1017 NOSIG
TAF GMFF 241100Z 2412/2518 30010KT 9999 FEW020 BKN030 
     PROB40 
     TEMPO 2415/2419 TSRA SCT010 BKN030 SCT033CB
       
GMME 241200Z 33004KT 280V020 6000 TS SCT015TCU BKN020 SCT023CB 09/06 Q1017 RESHRA TEMPO 4000 SHRA
TAF GMME 241100Z 2412/2518 22012KT 6000 SCT015 BKN020 SCT023CB 
     TEMPO 2412/2418 18008KT TSSHRA
       
GMTN 241200Z 24015KT 9999 SCT030TCU FEW040CB 13/04 Q1015 NOSIG